createdAt,value
2019-01-05T00:00:18.753Z,-2.07
2019-01-05T00:03:04.372Z,-2.37
2019-01-05T00:06:03.677Z,-1.95
2019-01-05T00:08:53.794Z,-2.06
2019-01-05T00:11:43.657Z,-2.00
2019-01-05T00:14:29.337Z,-2.24
2019-01-05T00:17:15.613Z,-2.12
2019-01-05T00:20:07.985Z,-2.03
2019-01-05T00:22:55.121Z,-2.19
2019-01-05T00:25:54.513Z,-2.08
2019-01-05T00:28:47.792Z,-1.97
2019-01-05T00:31:45.453Z,-2.00
2019-01-05T00:34:47.685Z,-2.19
2019-01-05T00:37:38.378Z,-2.15
2019-01-05T00:40:24.606Z,-2.00
2019-01-05T00:43:22.182Z,-2.06
2019-01-05T00:46:09.868Z,-1.95
2019-01-05T00:48:57.098Z,-1.96
2019-01-05T00:51:46.811Z,-1.84
2019-01-05T00:54:36.869Z,-1.88
2019-01-05T00:57:27.602Z,-1.91
2019-01-05T01:00:11.412Z,-2.23
2019-01-05T01:03:07.459Z,-2.35
2019-01-05T01:05:53.276Z,-2.29
2019-01-05T01:08:55.477Z,-2.38
2019-01-05T01:11:38.825Z,-2.51
2019-01-05T01:14:24.565Z,-2.64
2019-01-05T01:17:17.666Z,-2.57
2019-01-05T01:20:10.476Z,-2.26
2019-01-05T01:23:05.280Z,-2.16
2019-01-05T01:25:51.913Z,-2.07
2019-01-05T01:28:51.171Z,-2.15
2019-01-05T01:31:37.373Z,-1.97
2019-01-05T01:34:32.682Z,-2.00
2019-01-05T01:37:26.449Z,-2.25
2019-01-05T01:40:27.693Z,-2.18
2019-01-05T01:43:22.149Z,-2.21
2019-01-05T01:46:25.019Z,-1.96
2019-01-05T01:49:15.516Z,-1.77
2019-01-05T01:52:01.704Z,-1.83
2019-01-05T01:54:58.465Z,-1.56
2019-01-05T01:57:46.034Z,-1.56
2019-01-05T02:00:32.715Z,-1.50
2019-01-05T02:03:22.114Z,-1.39
2019-01-05T02:06:07.950Z,-1.13
2019-01-05T02:09:10.506Z,-1.28
2019-01-05T02:12:12.732Z,-1.40
2019-01-05T02:15:05.182Z,-1.30
2019-01-05T02:18:04.245Z,-1.30
2019-01-05T02:21:03.547Z,-1.63
2019-01-05T02:24:56.131Z,-1.68
2019-01-05T02:28:05.487Z,-1.71
2019-01-05T02:31:26.916Z,-1.37
2019-01-05T02:35:00.773Z,-1.69
2019-01-05T02:38:29.640Z,-2.00
2019-01-05T02:41:41.593Z,-1.97
2019-01-05T02:45:19.707Z,-2.06
2019-01-05T02:48:43.487Z,-1.84
2019-01-05T02:52:26.734Z,-1.98
2019-01-05T02:56:28.387Z,-1.79
2019-01-05T03:00:01.617Z,-1.92
2019-01-05T03:03:33.890Z,-2.31
2019-01-05T03:07:07.153Z,-2.34
2019-01-05T03:10:56.660Z,-2.10
2019-01-05T03:14:33.621Z,-2.10
2019-01-05T03:18:09.090Z,-2.33
2019-01-05T03:21:34.232Z,-2.67
2019-01-05T03:25:10.808Z,-2.55
2019-01-05T03:28:38.222Z,-2.54
2019-01-05T03:32:17.046Z,-2.46
2019-01-05T03:35:34.264Z,-2.41
2019-01-05T03:39:17.003Z,-2.76
2019-01-05T03:42:51.757Z,-2.50
2019-01-05T03:46:15.178Z,-2.83
2019-01-05T03:49:41.216Z,-2.41
2019-01-05T03:53:08.476Z,-2.79
2019-01-05T03:56:35.782Z,-2.79
2019-01-05T03:59:50.385Z,-2.70
2019-01-05T04:03:01.784Z,-2.70
2019-01-05T04:06:25.702Z,-2.83
2019-01-05T04:09:57.995Z,-3.13
2019-01-05T04:13:15.532Z,-3.31
2019-01-05T04:17:23.722Z,-3.59
2019-01-05T04:20:46.075Z,-3.46
2019-01-05T04:24:13.915Z,-3.46
2019-01-05T04:28:05.939Z,-3.47
2019-01-05T04:31:45.265Z,-3.31
2019-01-05T04:35:45.899Z,-3.47
2019-01-05T04:39:27.682Z,-3.47
2019-01-05T04:42:59.089Z,-3.52
2019-01-05T04:46:46.347Z,-3.37
2019-01-05T04:50:32.342Z,-3.54
2019-01-05T04:54:06.729Z,-3.54
2019-01-05T04:57:42.598Z,-3.26
2019-01-05T05:01:37.493Z,-3.20
2019-01-05T05:05:07.194Z,-3.20
2019-01-05T05:08:37.178Z,-3.47
2019-01-05T05:11:50.987Z,-3.26
2019-01-05T05:15:13.702Z,-3.26
2019-01-05T05:18:27.586Z,-3.00
2019-01-05T05:21:49.680Z,-3.00
2019-01-05T05:25:28.603Z,-2.88
2019-01-05T05:29:18.665Z,-3.08
2019-01-05T05:32:52.243Z,-3.06
2019-01-05T05:36:54.331Z,-3.16
2019-01-05T05:40:18.042Z,-3.32
2019-01-05T05:43:50.685Z,-3.32
2019-01-05T05:47:22.984Z,-3.57
2019-01-05T05:51:07.879Z,-3.57
2019-01-05T05:54:59.430Z,-3.86
2019-01-05T05:58:21.628Z,-3.71
2019-01-05T06:01:52.862Z,-3.98
2019-01-05T06:05:29.262Z,-4.06
2019-01-05T06:09:19.474Z,-4.06
2019-01-05T06:12:54.512Z,-4.05
2019-01-05T06:16:07.698Z,-4.05
2019-01-05T06:19:40.125Z,-4.12
2019-01-05T06:23:22.718Z,-4.19
2019-01-05T06:26:32.604Z,-4.17
2019-01-05T06:30:15.766Z,-4.32
2019-01-05T06:34:13.314Z,-4.32
2019-01-05T06:37:44.231Z,-4.31
2019-01-05T06:41:01.613Z,-4.31
2019-01-05T06:44:29.150Z,-4.39
2019-01-05T06:48:12.853Z,-4.45
2019-01-05T06:51:42.670Z,-4.63
2019-01-05T06:55:15.260Z,-4.47
2019-01-05T06:58:41.040Z,-4.51
2019-01-05T07:02:17.961Z,-4.51
2019-01-05T07:05:53.271Z,-4.34
2019-01-05T07:09:42.200Z,-4.34
2019-01-05T07:13:37.714Z,-4.33
2019-01-05T07:17:21.507Z,-4.15
2019-01-05T07:21:13.037Z,-3.95
2019-01-05T07:24:26.193Z,-3.95
2019-01-05T07:27:49.653Z,-3.99
2019-01-05T07:31:31.835Z,-4.21
2019-01-05T07:34:55.581Z,-4.15
2019-01-05T07:38:33.534Z,-3.81
2019-01-05T07:42:16.419Z,-3.86
2019-01-05T07:45:42.354Z,-3.86
2019-01-05T07:49:06.232Z,-4.05
2019-01-05T07:52:28.492Z,-4.05
2019-01-05T07:55:51.110Z,-4.21
2019-01-05T07:59:31.091Z,-3.83
2019-01-05T08:03:04.484Z,-3.76
2019-01-05T08:06:34.614Z,-3.47
2019-01-05T08:10:14.143Z,-3.37
2019-01-05T08:13:36.514Z,-3.26
2019-01-05T08:17:02.105Z,-3.17
2019-01-05T08:20:28.088Z,-2.92
2019-01-05T08:23:28.510Z,-2.92
2019-01-05T08:26:53.047Z,-2.76
2019-01-05T08:30:15.184Z,-2.79
2019-01-05T08:33:30.026Z,-2.92
2019-01-05T08:37:01.276Z,-2.62
2019-01-05T08:40:40.063Z,-2.20
2019-01-05T08:44:03.343Z,-2.17
2019-01-05T08:47:36.342Z,-2.45
2019-01-05T08:50:57.575Z,-2.20
2019-01-05T08:54:38.316Z,-2.60
2019-01-05T08:58:17.890Z,-2.37
2019-01-05T09:02:01.057Z,-2.14
2019-01-05T09:05:38.444Z,-2.24
2019-01-05T09:09:43.344Z,-2.19
2019-01-05T09:13:05.827Z,-2.03
2019-01-05T09:16:35.567Z,-2.13
2019-01-05T09:20:11.280Z,-2.30
2019-01-05T09:23:53.461Z,-2.21
2019-01-05T09:27:20.826Z,-2.33
2019-01-05T09:30:58.118Z,-1.61
2019-01-05T09:34:41.423Z,-1.96
2019-01-05T09:38:11.473Z,-1.72
2019-01-05T09:41:55.938Z,-1.50
2019-01-05T09:45:32.214Z,-1.33
2019-01-05T09:48:59.391Z,-1.01
2019-01-05T09:52:22.516Z,-1.39
2019-01-05T09:56:05.536Z,-1.24
2019-01-05T09:59:36.724Z,-1.38
2019-01-05T10:03:39.206Z,-1.56
2019-01-05T10:07:00.448Z,-1.11
2019-01-05T10:10:17.876Z,-1.48
2019-01-05T10:14:07.492Z,-1.48
2019-01-05T10:17:33.695Z,-1.35
2019-01-05T10:21:11.352Z,-1.61
2019-01-05T10:25:09.042Z,-1.66
2019-01-05T10:28:43.268Z,-1.25
2019-01-05T10:32:18.220Z,-1.24
2019-01-05T10:35:51.769Z,-1.15
2019-01-05T10:39:33.383Z,-1.15
2019-01-05T10:43:08.113Z,-0.83
2019-01-05T10:46:37.061Z,-0.83
2019-01-05T10:49:36.324Z,-0.93
2019-01-05T10:53:06.026Z,-0.74
2019-01-05T10:56:29.134Z,-0.74
2019-01-05T10:59:43.291Z,-0.88
2019-01-05T11:03:24.077Z,-0.61
2019-01-05T11:06:49.893Z,-0.61
2019-01-05T11:10:36.298Z,-0.06
2019-01-05T11:14:10.576Z,0.16
2019-01-05T11:17:49.885Z,-0.07
2019-01-05T11:21:30.611Z,-0.38
2019-01-05T11:25:16.452Z,-0.49
2019-01-05T11:28:50.301Z,-0.52
2019-01-05T11:32:04.136Z,-0.58
2019-01-05T11:35:27.930Z,-0.23
2019-01-05T11:38:58.482Z,-0.59
2019-01-05T11:42:17.002Z,-0.53
2019-01-05T11:45:46.373Z,-0.24
2019-01-05T11:49:01.080Z,-0.59
2019-01-05T11:52:38.489Z,-0.59
2019-01-05T11:56:04.684Z,-0.52
2019-01-05T11:59:57.205Z,-0.59
2019-01-05T12:03:34.694Z,-0.63
2019-01-05T12:07:16.646Z,-0.41
2019-01-05T12:11:02.686Z,-0.55
2019-01-05T12:14:51.323Z,-0.72
2019-01-05T12:18:39.905Z,-0.59
2019-01-05T12:22:06.991Z,-0.52
2019-01-05T12:25:54.577Z,-0.44
2019-01-05T12:29:25.369Z,-0.44
2019-01-05T12:33:11.809Z,-0.08
2019-01-05T12:36:41.209Z,-0.32
2019-01-05T12:40:27.520Z,-0.56
2019-01-05T12:43:58.228Z,-0.86
2019-01-05T12:47:43.045Z,-0.52
2019-01-05T12:51:04.848Z,-0.52
2019-01-05T12:54:26.544Z,-0.39
2019-01-05T12:57:39.136Z,-0.40
2019-01-05T13:01:01.816Z,-0.73
2019-01-05T13:04:44.039Z,-0.89
2019-01-05T13:08:35.345Z,-1.20
2019-01-05T13:12:13.507Z,-0.91
2019-01-05T13:15:55.894Z,-0.87
2019-01-05T13:19:21.319Z,-1.10
2019-01-05T13:22:41.853Z,-1.10
2019-01-05T13:26:31.698Z,-0.60
2019-01-05T13:30:00.647Z,-1.15
2019-01-05T13:33:53.627Z,-0.99
2019-01-05T13:37:24.281Z,-0.92
2019-01-05T13:40:35.362Z,-0.90
2019-01-05T13:44:06.477Z,-0.90
2019-01-05T13:47:36.433Z,-0.63
2019-01-05T13:51:08.301Z,-0.63
2019-01-05T13:54:18.403Z,-0.59
2019-01-05T13:57:05.641Z,-0.57
2019-01-05T13:59:58.390Z,-0.57
2019-01-05T14:02:48.757Z,-0.72
2019-01-05T14:05:38.818Z,0.01
2019-01-05T14:08:24.635Z,0.27
2019-01-05T14:11:20.955Z,1.27
2019-01-05T14:14:07.047Z,0.79
2019-01-05T14:16:52.835Z,0.41
2019-01-05T14:19:38.350Z,-0.10
2019-01-05T14:22:24.012Z,-0.75
2019-01-05T14:25:11.267Z,-0.75
2019-01-05T14:28:07.506Z,-0.95
2019-01-05T14:30:51.734Z,-1.38
2019-01-05T14:33:52.639Z,-1.40
2019-01-05T14:36:42.648Z,-1.40
2019-01-05T14:39:29.954Z,-1.66
2019-01-05T14:42:17.303Z,-1.66
2019-01-05T14:45:02.896Z,-1.63
2019-01-05T14:48:05.512Z,-1.80
2019-01-05T14:50:51.144Z,-1.80
2019-01-05T14:53:50.404Z,-1.95
2019-01-05T14:56:37.515Z,-2.03
2019-01-05T14:59:27.885Z,-2.09
2019-01-05T15:02:13.386Z,-2.01
2019-01-05T15:05:03.505Z,-2.17
2019-01-05T15:07:49.766Z,-2.15
2019-01-05T15:10:55.279Z,-1.99
2019-01-05T15:13:41.156Z,-2.03
2019-01-05T15:16:34.042Z,-2.29
2019-01-05T15:19:19.628Z,-2.24
2019-01-05T15:22:05.599Z,-2.40
2019-01-05T15:24:51.283Z,-2.73
2019-01-05T15:27:38.354Z,-2.48
2019-01-05T15:30:31.739Z,-2.67
2019-01-05T15:33:17.836Z,-2.60
2019-01-05T15:36:14.322Z,-2.68
2019-01-05T15:39:09.854Z,-2.76
2019-01-05T15:42:09.359Z,-2.95
2019-01-05T15:44:55.565Z,-2.77
2019-01-05T15:47:42.664Z,-3.07
2019-01-05T15:50:28.096Z,-3.19
2019-01-05T15:53:20.926Z,-3.06
2019-01-05T15:56:10.648Z,-2.80
2019-01-05T15:58:56.297Z,-2.86
2019-01-05T16:01:49.658Z,-2.94
2019-01-05T16:04:45.877Z,-2.97
2019-01-05T16:07:31.849Z,-3.03
2019-01-05T16:10:18.864Z,-3.08
2019-01-05T16:13:12.092Z,-2.99
2019-01-05T16:15:57.914Z,-3.21
2019-01-05T16:18:43.476Z,-3.24
2019-01-05T16:21:33.250Z,-3.27
2019-01-05T16:24:18.757Z,-3.27
2019-01-05T16:27:05.801Z,-3.45
2019-01-05T16:29:52.916Z,-3.50
2019-01-05T16:32:43.404Z,-3.50
2019-01-05T16:35:29.279Z,-3.49
2019-01-05T16:38:14.821Z,-3.60
2019-01-05T16:40:56.563Z,-3.83
2019-01-05T16:43:42.066Z,-3.72
2019-01-05T16:46:40.808Z,-3.72
2019-01-05T16:49:40.150Z,-4.23
2019-01-05T16:52:26.089Z,-4.12
2019-01-05T16:55:28.123Z,-3.97
2019-01-05T16:58:13.995Z,-3.95
2019-01-05T17:01:04.120Z,-3.95
2019-01-05T17:03:57.360Z,-3.93
2019-01-05T17:06:53.477Z,-4.00
2019-01-05T17:09:39.109Z,-4.05
2019-01-05T17:12:29.241Z,-3.85
2019-01-05T17:15:16.727Z,-3.85
2019-01-05T17:18:12.721Z,-4.39
2019-01-05T17:21:11.772Z,-4.19
2019-01-05T17:23:57.326Z,-3.87
2019-01-05T17:26:46.450Z,-3.85
2019-01-05T17:29:37.903Z,-3.47
2019-01-05T17:32:27.716Z,-3.47
2019-01-05T17:35:14.767Z,-4.22
2019-01-05T17:38:12.947Z,-4.44
2019-01-05T17:40:58.699Z,-4.44
2019-01-05T17:43:44.234Z,-4.59
2019-01-05T17:46:30.034Z,-4.47
2019-01-05T17:49:28.971Z,-4.50
2019-01-05T17:52:28.221Z,-4.50
2019-01-05T17:55:21.320Z,-4.41
2019-01-05T17:58:06.842Z,-4.21
2019-01-05T18:01:02.867Z,-4.50
2019-01-05T18:03:52.750Z,-4.36
2019-01-05T18:06:38.837Z,-4.43
2019-01-05T18:09:29.241Z,-4.17
2019-01-05T18:12:15.050Z,-3.68
2019-01-05T18:15:13.985Z,-3.90
2019-01-05T18:17:59.552Z,-3.90
2019-01-05T18:21:01.608Z,-4.13
2019-01-05T18:24:03.728Z,-4.22
2019-01-05T18:26:53.834Z,-4.43
2019-01-05T18:29:53.130Z,-4.35
2019-01-05T18:32:42.951Z,-4.35
2019-01-05T18:35:47.485Z,-4.35
2019-01-05T18:38:34.432Z,-4.06
2019-01-05T18:41:20.134Z,-3.69
2019-01-05T18:44:07.118Z,-3.92
2019-01-05T18:47:00.591Z,-4.14
2019-01-05T18:49:59.478Z,-4.00
2019-01-05T18:52:45.079Z,-4.26
2019-01-05T18:55:42.133Z,-4.26
2019-01-05T18:58:47.910Z,-4.53
2019-01-05T19:01:38.022Z,-4.73
2019-01-05T19:04:34.364Z,-4.42
2019-01-05T19:07:30.184Z,-4.52
2019-01-05T19:10:23.319Z,-4.45
2019-01-05T19:13:04.896Z,-4.65
2019-01-05T19:15:54.606Z,-4.67
2019-01-05T19:18:46.051Z,-4.77
2019-01-05T19:21:38.899Z,-4.77
2019-01-05T19:24:29.085Z,-4.83
2019-01-05T19:27:15.754Z,-4.67
2019-01-05T19:30:02.741Z,-4.70
2019-01-05T19:32:48.527Z,-4.60
2019-01-05T19:35:35.710Z,-4.60
2019-01-05T19:38:37.638Z,-4.59
2019-01-05T19:41:30.605Z,-4.54
2019-01-05T19:44:30.718Z,-4.35
2019-01-05T19:47:16.483Z,-4.48
2019-01-05T19:50:03.553Z,-4.50
2019-01-05T19:52:49.745Z,-3.73
2019-01-05T19:55:36.756Z,-3.73
2019-01-05T19:58:32.510Z,-4.24
2019-01-05T20:01:28.326Z,-4.53
2019-01-05T20:04:24.322Z,-4.97
2019-01-05T20:07:14.629Z,-5.48
2019-01-05T20:09:54.023Z,-5.31
2019-01-05T20:12:47.091Z,-5.56
2019-01-05T20:15:32.936Z,-5.58
2019-01-05T20:18:14.149Z,-5.64
2019-01-05T20:21:16.385Z,-5.10
2019-01-05T20:23:58.558Z,-4.60
2019-01-05T20:26:58.030Z,-4.34
2019-01-05T20:29:44.089Z,-4.63
2019-01-05T20:32:29.815Z,-4.63
2019-01-05T20:35:23.653Z,-4.65
2019-01-05T20:38:29.094Z,-4.81
2019-01-05T20:41:16.176Z,-4.48
2019-01-05T20:44:02.115Z,-4.53
2019-01-05T20:47:04.416Z,-4.24
2019-01-05T20:49:50.116Z,-4.65
2019-01-05T20:52:49.420Z,-4.95
2019-01-05T20:55:36.586Z,-5.08
2019-01-05T20:58:29.542Z,-5.17
2019-01-05T21:01:19.955Z,-5.24
2019-01-05T21:04:05.697Z,-5.49
2019-01-05T21:06:52.804Z,-5.60
2019-01-05T21:09:38.256Z,-5.98
2019-01-05T21:12:26.279Z,-5.92
2019-01-05T21:15:22.171Z,-5.38
2019-01-05T21:18:21.436Z,-5.47
2019-01-05T21:21:07.451Z,-5.10
2019-01-05T21:23:57.334Z,-5.52
2019-01-05T21:26:59.677Z,-5.34
2019-01-05T21:29:58.722Z,-5.51
2019-01-05T21:32:48.452Z,-4.88
2019-01-05T21:35:32.761Z,-5.06
2019-01-05T21:38:32.988Z,-5.30
2019-01-05T21:41:38.057Z,-5.20
2019-01-05T21:44:23.768Z,-5.13
2019-01-05T21:47:06.243Z,-5.32
2019-01-05T21:49:51.523Z,-5.21
2019-01-05T21:52:41.383Z,-4.99
2019-01-05T21:55:40.916Z,-4.56
2019-01-05T21:58:43.187Z,-4.46
2019-01-05T22:01:30.177Z,-4.46
2019-01-05T22:04:26.422Z,-4.62
2019-01-05T22:07:13.583Z,-4.23
2019-01-05T22:09:52.089Z,-4.47
2019-01-05T22:12:34.344Z,-4.47
2019-01-05T22:15:21.442Z,-4.19
2019-01-05T22:18:07.140Z,-4.35
2019-01-05T22:20:43.670Z,-4.32
2019-01-05T22:23:29.459Z,-4.09
2019-01-05T22:26:15.194Z,-4.34
2019-01-05T22:29:00.803Z,-4.50
2019-01-05T22:31:50.575Z,-4.31
2019-01-05T22:34:36.351Z,-4.31
2019-01-05T22:37:21.863Z,-4.40
2019-01-05T22:40:14.747Z,-4.40
2019-01-05T22:43:10.890Z,-4.35
2019-01-05T22:45:57.964Z,-4.58
2019-01-05T22:48:43.647Z,-4.58
2019-01-05T22:51:29.652Z,-4.58
2019-01-05T22:54:16.780Z,-4.61
2019-01-05T22:57:09.825Z,-4.70
2019-01-05T23:00:01.968Z,-4.70
2019-01-05T23:02:49.002Z,-4.54
2019-01-05T23:05:34.721Z,-4.64
2019-01-05T23:08:20.656Z,-4.49
2019-01-05T23:11:06.335Z,-4.46
2019-01-05T23:14:02.466Z,-4.66
2019-01-05T23:16:58.424Z,-4.28
2019-01-05T23:19:48.120Z,-4.28
2019-01-05T23:22:33.849Z,-4.32
2019-01-05T23:25:20.909Z,-4.17
2019-01-05T23:28:17.131Z,-4.28
2019-01-05T23:31:13.203Z,-4.28
2019-01-05T23:33:59.203Z,-4.40
2019-01-05T23:36:44.798Z,-4.40
2019-01-05T23:39:37.598Z,-4.15
2019-01-05T23:42:24.688Z,-4.15
2019-01-05T23:45:14.582Z,-4.58
2019-01-05T23:48:07.632Z,-4.36
2019-01-05T23:50:57.571Z,-4.36
2019-01-05T23:54:03.090Z,-4.30
2019-01-05T23:56:52.584Z,-4.41
2019-01-05T23:59:37.434Z,-4.54
